Time;durP1;ratioP1;P1;durP2;ratioP2;P2;SDS_P1;SDS_P2;PMS_P1;PMS_P2;Temp;Humidity;BMP_temperature;BMP_pressure;BME280_temperature;BME280_humidity;BME280_pressure;Samples;Min_cycle;Max_cycle;Signal;HPM_P1;HPM_P2
2022/06/19 00:01:30;;;;;;;;;15.00;14.50;;;;;30.58;39.80;99877.41;5055094;28;46347;-62
2022/06/19 00:03:56;;;;;;;;;15.25;15.25;;;;;30.39;40.49;99883.59;5055319;28;45564;-62
2022/06/19 00:06:22;;;;;;;;;15.50;15.50;;;;;30.29;41.15;99861.41;5055228;28;45442;-62
2022/06/19 00:08:49;;;;;;;;;16.00;16.00;;;;;30.12;42.12;99864.41;5055205;28;45694;-61
2022/06/19 00:11:18;;;;;;;;;14.75;14.75;;;;;30.00;42.38;99895.00;5054810;28;46768;-62
2022/06/19 00:13:44;;;;;;;;;13.00;13.00;;;;;29.87;43.10;99890.31;5054981;28;45406;-66
2022/06/19 00:16:10;;;;;;;;;18.00;15.00;;;;;29.82;43.02;99922.59;5053816;28;45436;-63
2022/06/19 00:18:38;;;;;;;;;16.25;16.25;;;;;29.74;43.47;99945.25;5054904;28;45537;-64
2022/06/19 00:21:08;;;;;;;;;18.75;17.25;;;;;29.51;43.63;99929.19;5054734;28;46107;-63
2022/06/19 00:23:33;;;;;;;;;16.75;16.75;;;;;29.30;43.63;99940.84;5054801;28;45450;-62
2022/06/19 00:25:59;;;;;;;;;16.50;16.50;;;;;29.18;44.08;99932.38;5054960;28;45412;-61
2022/06/19 00:28:24;;;;;;;;;14.50;14.00;;;;;29.09;44.19;99944.34;5055017;28;45470;-64
2022/06/19 00:30:50;;;;;;;;;14.00;13.75;;;;;28.97;44.01;99937.72;5054975;28;45459;-62
2022/06/19 00:33:15;;;;;;;;;13.25;11.75;;;;;28.85;43.93;99943.66;5054958;28;45552;-63
2022/06/19 00:35:41;;;;;;;;;14.25;14.00;;;;;28.73;43.57;99915.38;5054904;28;45513;-62
2022/06/19 00:38:07;;;;;;;;;12.00;12.00;;;;;28.50;44.21;99920.06;5054816;28;45512;-65
2022/06/19 00:40:33;;;;;;;;;11.25;11.25;;;;;28.39;43.44;99913.22;5054399;28;46716;-64
2022/06/19 00:42:58;;;;;;;;;13.25;13.00;;;;;28.36;43.04;99919.00;5054828;28;45556;-62
2022/06/19 00:45:30;;;;;;;;;10.75;10.75;;;;;28.20;43.54;99936.25;5054666;28;45469;-62
2022/06/19 00:47:56;;;;;;;;;10.50;10.50;;;;;28.02;44.40;99924.94;5054658;28;45621;-63
2022/06/19 00:50:26;;;;;;;;;12.00;12.00;;;;;27.88;43.77;99935.53;5054628;28;46023;-63
2022/06/19 00:52:51;;;;;;;;;11.25;11.25;;;;;27.83;43.38;99939.81;5053360;28;45435;-62
2022/06/19 00:55:20;;;;;;;;;11.75;10.00;;;;;27.76;43.53;99959.44;5054755;28;45372;-63
2022/06/19 00:58:16;;;;;;;;;10.50;10.00;;;;;27.72;43.79;99968.91;5054720;28;45623;-65
2022/06/19 01:00:45;;;;;;;;;12.50;11.50;;;;;27.58;43.26;99953.50;5054270;28;45447;-63
2022/06/19 01:03:17;;;;;;;;;11.80;9.80;;;;;27.35;43.70;99969.69;5054373;28;45476;-64
2022/06/19 01:05:45;;;;;;;;;7.00;7.00;;;;;27.08;43.86;99979.06;5054616;28;45546;-65
2022/06/19 01:08:11;;;;;;;;;9.25;8.25;;;;;26.95;44.04;99974.28;5054424;28;45537;-64
2022/06/19 01:10:41;;;;;;;;;9.00;9.00;;;;;26.87;43.95;99980.53;5054363;28;47255;-63
2022/06/19 01:13:07;;;;;;;;;8.40;8.20;;;;;26.73;44.02;99956.13;5054342;28;45490;-63
2022/06/19 01:15:33;;;;;;;;;6.25;6.25;;;;;26.65;43.54;99978.56;5058600;28;45653;-61
2022/06/19 01:18:03;;;;;;;;;9.00;8.00;;;;;26.55;43.83;99992.28;5073043;27;45448;-63
2022/06/19 01:20:32;;;;;;;;;8.75;8.75;;;;;26.40;43.72;99973.22;5063138;27;45545;-65
2022/06/19 01:23:01;;;;;;;;;9.25;8.75;;;;;26.32;43.91;99975.94;5066044;28;45640;-62
2022/06/19 01:25:32;;;;;;;;;9.75;9.50;;;;;26.27;43.91;99985.56;5060524;27;45556;-62
2022/06/19 01:30:50;;;;;;;;;11.75;11.75;;;;;26.03;43.59;99981.88;5067763;27;46374;-62
2022/06/19 01:33:19;;;;;;;;;10.75;9.75;;;;;25.94;43.63;99980.22;5070634;27;45657;-64
2022/06/19 01:35:48;;;;;;;;;10.75;9.00;;;;;25.87;43.55;99976.50;5076940;27;45492;-63
2022/06/19 01:38:16;;;;;;;;;13.75;12.00;;;;;25.60;44.00;99999.16;5065073;27;45649;-64
2022/06/19 01:40:46;;;;;;;;;13.25;11.50;;;;;25.44;43.94;100010.75;5073255;27;46426;-63
2022/06/19 01:43:12;;;;;;;;;8.25;8.25;;;;;25.39;43.65;100005.88;5076178;27;45498;-60
2022/06/19 01:45:43;;;;;;;;;11.50;10.00;;;;;25.35;44.00;100004.50;5072788;27;45509;-61
2022/06/19 01:48:09;;;;;;;;;12.25;11.25;;;;;25.19;44.06;100012.53;5074357;27;45497;-61
2022/06/19 01:50:34;;;;;;;;;14.00;11.25;;;;;25.15;44.13;100003.97;5075528;27;45639;-61
2022/06/19 01:53:07;;;;;;;;;15.75;12.50;;;;;24.87;44.36;99998.75;5076248;27;45528;-63
2022/06/19 01:55:34;;;;;;;;;16.00;12.50;;;;;24.85;44.22;99984.66;5076855;27;45588;-63
2022/06/19 01:58:00;;;;;;;;;12.50;10.75;;;;;24.78;44.33;99977.38;5077845;27;45444;-64
2022/06/19 02:00:28;;;;;;;;;13.75;13.75;;;;;24.86;44.22;99990.88;5076714;27;46814;-61
2022/06/19 02:03:12;;;;;;;;;14.00;10.50;;;;;24.69;44.59;99996.16;5057419;27;45532;-62
2022/06/19 02:05:39;;;;;;;;;13.50;10.25;;;;;24.69;44.48;99998.03;5057255;28;45600;-64
2022/06/19 02:08:06;;;;;;;;;12.25;12.00;;;;;24.78;43.86;100009.66;5066448;27;45623;-59
2022/06/19 02:10:34;;;;;;;;;11.75;11.75;;;;;24.63;44.14;100031.75;5073944;27;45679;-63
2022/06/19 02:13:01;;;;;;;;;16.67;16.67;;;;;24.64;44.08;100049.59;5060123;27;45489;-59
2022/06/19 02:15:27;;;;;;;;;15.00;14.00;;;;;24.63;43.82;100076.63;5075487;27;45545;-61
2022/06/19 02:17:54;;;;;;;;;12.00;10.75;;;;;24.57;43.71;100098.78;5063753;27;45777;-60
2022/06/19 02:20:20;;;;;;;;;12.50;10.50;;;;;24.57;44.01;100098.78;5069068;27;46113;-64
2022/06/19 02:22:46;;;;;;;;;10.75;10.75;;;;;24.61;43.79;100092.94;5056833;27;45649;-63
2022/06/19 02:25:12;;;;;;;;;9.50;9.50;;;;;24.68;43.36;100082.38;5076373;27;45616;-61
2022/06/19 02:27:39;;;;;;;;;9.25;9.25;;;;;24.69;43.43;100081.38;5076961;27;45394;-62
2022/06/19 02:30:07;;;;;;;;;11.25;9.75;;;;;24.52;43.62;100091.16;5076193;27;45546;-60
2022/06/19 02:32:45;;;;;;;;;10.00;10.00;;;;;24.61;43.55;100094.75;5077837;27;45527;-61
2022/06/19 02:35:23;;;;;;;;;11.75;9.00;;;;;24.59;43.31;100086.84;5077023;27;45543;-64
2022/06/19 02:37:53;;;;;;;;;12.00;10.75;;;;;24.54;43.90;100082.97;5070809;27;45497;-62
2022/06/19 02:40:38;;;;;;;;;10.00;9.75;;;;;24.57;43.51;100064.66;5065562;27;45562;-61
2022/06/19 02:43:10;;;;;;;;;11.00;9.50;;;;;24.57;43.55;100071.88;5077314;27;45489;-63
2022/06/19 02:45:39;;;;;;;;;10.25;10.25;;;;;24.49;44.06;100071.81;5077537;27;45421;-64
2022/06/19 02:48:05;;;;;;;;;11.00;11.00;;;;;24.48;43.88;100110.47;5076762;27;45476;-63
2022/06/19 02:50:34;;;;;;;;;9.00;9.00;;;;;24.29;44.27;100284.31;5075639;27;45438;-63
2022/06/19 02:53:00;;;;;;;;;10.50;9.00;;;;;24.19;44.40;100361.44;5076446;27;45487;-64
2022/06/19 02:55:27;;;;;;;;;10.25;8.50;;;;;24.00;44.77;100177.00;5077155;27;45483;-60
2022/06/19 02:57:52;;;;;;;;;12.50;12.50;;;;;24.09;44.93;100234.34;5077137;27;45520;-63
2022/06/19 03:00:28;;;;;;;;;14.00;11.25;;;;;24.17;44.71;100264.84;5076583;27;45526;-63
2022/06/19 03:02:58;;;;;;;;;11.25;10.50;;;;;24.23;44.16;100277.69;5076048;27;45454;-63
2022/06/19 03:05:27;;;;;;;;;9.75;9.75;;;;;24.25;44.65;100266.78;5076867;27;45410;-65
2022/06/19 03:07:52;;;;;;;;;12.50;10.75;;;;;24.28;44.32;100293.34;5076076;27;45576;-64
2022/06/19 03:10:18;;;;;;;;;12.50;12.50;;;;;24.30;44.49;100243.00;5070020;28;45555;-64
2022/06/19 03:12:46;;;;;;;;;11.00;11.00;;;;;24.22;44.31;100249.13;5055910;28;45424;-64
2022/06/19 03:15:13;;;;;;;;;11.75;10.25;;;;;24.27;44.04;100250.53;5055295;28;45485;-60
2022/06/19 03:17:39;;;;;;;;;13.00;13.00;;;;;24.19;44.37;100214.47;5055533;28;45516;-61
2022/06/19 03:20:06;;;;;;;;;13.50;11.00;;;;;24.11;44.53;100227.84;5056906;28;45596;-63
2022/06/19 03:22:31;;;;;;;;;13.25;12.00;;;;;24.13;44.15;100258.09;5056261;28;45466;-60
2022/06/19 03:24:56;;;;;;;;;12.00;10.75;;;;;24.12;44.50;100261.75;5056278;28;45462;-64
2022/06/19 03:27:22;;;;;;;;;10.00;10.00;;;;;24.16;44.40;100214.78;5056395;28;45593;-65
2022/06/19 03:29:47;;;;;;;;;11.25;8.00;;;;;24.11;44.78;100219.78;5055978;28;45555;-63
2022/06/19 03:32:14;;;;;;;;;10.00;10.00;;;;;23.87;44.74;100228.38;5056202;28;45454;-62
2022/06/19 03:34:42;;;;;;;;;14.50;11.00;;;;;23.91;44.76;100205.63;5056302;28;45422;-64
2022/06/19 03:37:08;;;;;;;;;11.00;10.00;;;;;23.76;45.23;100239.34;5056660;28;45976;-63
2022/06/19 03:39:34;;;;;;;;;10.25;9.25;;;;;23.69;45.37;100233.66;5055552;28;46607;-63
2022/06/19 03:42:00;;;;;;;;;12.00;10.50;;;;;23.69;45.29;100239.03;5055635;28;45446;-63
2022/06/19 03:44:26;;;;;;;;;12.75;10.25;;;;;23.67;45.12;100245.53;5055860;28;45552;-62
2022/06/19 03:46:51;;;;;;;;;9.50;9.50;;;;;23.71;45.23;100258.56;5056043;28;45436;-62
2022/06/19 03:49:16;;;;;;;;;13.00;10.75;;;;;23.75;44.78;100256.41;5055583;28;47684;-63
2022/06/19 03:51:42;;;;;;;;;12.00;11.50;;;;;23.74;44.94;100246.69;5055327;28;45408;-64
2022/06/19 03:54:08;;;;;;;;;11.67;11.33;;;;;23.62;44.91;100221.00;5056424;28;45569;-64
2022/06/19 03:56:35;;;;;;;;;11.75;9.50;;;;;23.54;45.40;100216.38;5055636;28;45443;-62
2022/06/19 03:59:00;;;;;;;;;11.33;10.00;;;;;23.53;45.19;100226.22;5055327;28;45572;-61
2022/06/19 04:01:27;;;;;;;;;13.75;12.50;;;;;23.59;44.92;100252.50;5053877;28;45457;-62
2022/06/19 04:03:54;;;;;;;;;12.00;11.25;;;;;23.69;45.31;100308.00;5054201;28;45509;-63
2022/06/19 04:06:22;;;;;;;;;14.25;12.75;;;;;23.61;44.96;100391.97;5055470;28;45618;-64
2022/06/19 04:08:48;;;;;;;;;12.00;12.00;;;;;23.76;44.65;100448.81;5055165;28;45431;-61
2022/06/19 04:11:15;;;;;;;;;14.00;12.50;;;;;23.88;44.71;100367.06;5067746;27;45485;-62
2022/06/19 04:13:41;;;;;;;;;11.25;10.75;;;;;24.00;44.33;100226.19;5075546;27;45537;-65
2022/06/19 04:16:10;;;;;;;;;13.75;13.25;;;;;23.94;45.18;100165.03;5075658;27;45628;-65
2022/06/19 04:18:35;;;;;;;;;13.50;13.00;;;;;24.02;46.04;100156.22;5075385;27;47634;-62
2022/06/19 04:21:01;;;;;;;;;16.75;14.00;;;;;24.08;46.62;100138.63;5075256;27;45484;-62
2022/06/19 04:23:27;;;;;;;;;13.00;12.67;;;;;24.15;46.66;100137.00;5075284;27;45472;-65
2022/06/19 04:25:54;;;;;;;;;16.00;13.25;;;;;24.10;46.60;100150.94;5075192;27;45511;-64
2022/06/19 04:28:24;;;;;;;;;13.50;10.75;;;;;24.12;46.61;100181.16;5072746;27;46235;-65
2022/06/19 04:30:52;;;;;;;;;13.00;13.00;;;;;24.00;47.34;100139.41;5075102;27;45442;-61
2022/06/19 04:33:18;;;;;;;;;13.50;11.50;;;;;24.07;46.54;100153.88;5075204;27;45520;-64
2022/06/19 04:35:45;;;;;;;;;12.50;12.25;;;;;24.06;47.15;100171.03;5080083;27;45610;-63
2022/06/19 04:38:11;;;;;;;;;14.33;13.67;;;;;24.07;47.97;100171.84;5095442;27;46231;-62
2022/06/19 04:40:37;;;;;;;;;13.33;13.00;;;;;24.09;47.13;100154.59;5095371;27;45465;-65
2022/06/19 04:43:04;;;;;;;;;12.00;12.00;;;;;23.93;47.09;100166.00;5095649;27;45425;-62
2022/06/19 04:45:29;;;;;;;;;11.75;10.25;;;;;23.74;47.06;100192.97;5079891;27;45663;-65
2022/06/19 04:47:55;;;;;;;;;12.25;11.00;;;;;23.50;47.73;100191.63;5054468;28;46620;-60
2022/06/19 04:50:20;;;;;;;;;10.50;10.25;;;;;23.54;48.30;100176.94;5054850;28;45474;-64
2022/06/19 04:52:46;;;;;;;;;12.33;10.67;;;;;23.59;47.57;100174.66;5054688;28;45531;-62
2022/06/19 04:55:12;;;;;;;;;13.00;12.33;;;;;23.63;48.10;100142.97;5054703;28;45586;-61
2022/06/19 04:57:38;;;;;;;;;14.00;10.25;;;;;23.55;48.10;100172.41;5054682;28;46315;-65
2022/06/19 05:00:06;;;;;;;;;12.75;12.25;;;;;23.56;48.15;100157.97;5054644;28;45517;-61
2022/06/19 05:02:31;;;;;;;;;10.25;10.25;;;;;23.63;47.81;100191.31;5061158;28;45413;-62
2022/06/19 05:04:56;;;;;;;;;7.00;7.00;;;;;23.56;47.96;100140.06;5074663;27;45763;-62
2022/06/19 05:07:22;;;;;;;;;10.50;9.50;;;;;23.67;47.76;100159.63;5074764;28;46444;-60
2022/06/19 05:09:47;;;;;;;;;11.25;10.50;;;;;23.73;47.63;100231.56;5073027;27;45441;-62
2022/06/19 05:12:12;;;;;;;;;10.50;10.50;;;;;23.78;47.16;100273.09;5054347;28;45409;-60
2022/06/19 05:14:38;;;;;;;;;10.75;10.75;;;;;23.86;47.48;100217.78;5054566;28;45441;-64
2022/06/19 05:17:04;;;;;;;;;10.75;10.75;;;;;23.85;47.25;100124.78;5054178;28;46095;-63
2022/06/19 05:19:29;;;;;;;;;13.25;11.25;;;;;23.78;47.63;100090.50;5055252;28;45430;-60
2022/06/19 05:21:54;;;;;;;;;8.75;8.50;;;;;23.82;47.46;100109.81;5054610;28;45509;-63
2022/06/19 05:24:20;;;;;;;;;9.50;8.00;;;;;23.63;47.63;100077.69;5054564;28;45544;-64
2022/06/19 05:26:46;;;;;;;;;5.25;5.25;;;;;23.39;48.61;99987.84;5054147;28;45552;-64
2022/06/19 05:29:11;;;;;;;;;7.75;7.00;;;;;23.10;48.56;99964.72;5054219;28;45419;-64
2022/06/19 05:31:37;;;;;;;;;9.75;8.00;;;;;22.87;49.50;100007.19;5054401;28;45517;-65
2022/06/19 05:34:02;;;;;;;;;7.00;7.00;;;;;22.95;49.00;100068.13;5054235;28;45533;-63
2022/06/19 05:36:29;;;;;;;;;6.00;5.75;;;;;23.08;48.92;100067.84;5060879;28;45489;-64
2022/06/19 05:38:55;;;;;;;;;7.00;7.00;;;;;23.17;48.71;100090.25;5074503;27;45512;-63
2022/06/19 05:41:20;;;;;;;;;9.00;6.25;;;;;23.23;48.33;100114.63;5072261;28;45546;-61
2022/06/19 05:43:49;;;;;;;;;7.75;6.50;;;;;23.17;48.16;100115.22;5072650;27;45516;-62
2022/06/19 05:46:16;;;;;;;;;8.00;7.50;;;;;22.97;48.55;100108.22;5073675;28;45544;-60
2022/06/19 05:48:42;;;;;;;;;6.50;6.00;;;;;22.85;49.02;100104.84;5073922;28;45505;-62
2022/06/19 05:51:16;;;;;;;;;6.75;6.75;;;;;22.85;48.34;100112.91;5074619;27;45448;-64
2022/06/19 05:53:45;;;;;;;;;6.00;6.00;;;;;22.71;48.93;100100.81;5073651;27;45548;-61
2022/06/19 05:56:11;;;;;;;;;6.50;6.50;;;;;22.70;48.62;100032.06;5074002;28;45613;-62
2022/06/19 05:58:38;;;;;;;;;6.25;5.75;;;;;22.79;48.81;100008.94;5074269;28;45413;-63
2022/06/19 06:01:04;;;;;;;;;6.75;6.50;;;;;22.81;48.21;100017.66;5074154;27;45568;-61
2022/06/19 06:03:30;;;;;;;;;8.75;8.00;;;;;22.87;48.54;99987.59;5074178;27;45425;-63
2022/06/19 06:06:07;;;;;;;;;13.67;12.00;;;;;22.82;48.19;99971.94;5073753;27;45500;-62
2022/06/19 06:08:36;;;;;;;;;15.00;14.00;;;;;22.71;48.14;99975.66;5073994;27;45572;-61
2022/06/19 06:11:03;;;;;;;;;8.00;8.00;;;;;22.62;48.46;99991.75;5061129;27;45507;-61
2022/06/19 06:13:29;;;;;;;;;11.00;7.75;;;;;22.54;48.22;99992.50;5055129;28;45430;-64
2022/06/19 06:15:54;;;;;;;;;7.50;5.50;;;;;22.63;48.49;100015.75;5056411;28;45481;-62
2022/06/19 06:18:20;;;;;;;;;7.25;6.25;;;;;22.78;47.80;100028.66;5055370;28;45507;-61
2022/06/19 06:21:03;;;;;;;;;6.00;5.75;;;;;22.91;47.49;100099.75;5056640;28;45465;-64
2022/06/19 06:23:29;;;;;;;;;6.50;5.00;;;;;23.00;47.07;100151.72;5056957;28;45469;-61
2022/06/19 06:26:04;;;;;;;;;4.75;4.75;;;;;23.09;47.39;100150.00;5056842;28;45427;-62
2022/06/19 06:28:31;;;;;;;;;6.00;4.25;;;;;23.06;47.06;100171.75;5057512;28;45512;-61
2022/06/19 06:30:56;;;;;;;;;5.50;5.50;;;;;23.09;46.73;100164.25;5057046;28;45532;-62
2022/06/19 06:33:22;;;;;;;;;10.00;6.75;;;;;23.17;46.98;100190.34;5057122;28;45517;-62
2022/06/19 06:35:48;;;;;;;;;3.00;3.00;;;;;23.23;46.88;100194.28;5056871;28;45525;-61
2022/06/19 06:38:13;;;;;;;;;9.00;6.00;;;;;23.30;47.01;100176.63;5056569;28;45462;-62
2022/06/19 06:40:38;;;;;;;;;4.00;4.00;;;;;23.28;47.19;100160.66;5056747;28;45559;-65
2022/06/19 06:43:04;;;;;;;;;5.75;5.75;;;;;23.29;47.29;100140.91;5056997;28;45463;-61
2022/06/19 06:45:29;;;;;;;;;6.25;6.25;;;;;23.31;47.37;100173.78;5072811;27;46615;-61
2022/06/19 06:47:55;;;;;;;;;7.75;5.50;;;;;23.34;46.93;100151.16;5076880;27;45526;-62
2022/06/19 06:50:21;;;;;;;;;4.00;4.00;;;;;23.42;46.91;100155.78;5076987;27;45509;-64
2022/06/19 06:52:46;;;;;;;;;4.25;4.25;;;;;23.35;46.60;100032.13;5076860;27;45445;-65
2022/06/19 06:55:12;;;;;;;;;8.25;6.50;;;;;23.24;47.45;99978.63;5076715;27;45539;-64
2022/06/19 06:57:38;;;;;;;;;6.50;5.50;;;;;23.25;47.64;100018.75;5076738;27;45393;-65
2022/06/19 07:00:07;;;;;;;;;8.00;6.75;;;;;23.30;48.06;100021.81;5076854;27;45465;-61
2022/06/19 07:02:32;;;;;;;;;5.25;5.25;;;;;23.33;48.01;100009.94;5060260;28;45379;-63
2022/06/19 07:04:58;;;;;;;;;7.25;5.00;;;;;23.33;47.89;100037.63;5056160;28;45478;-62
2022/06/19 07:07:23;;;;;;;;;8.25;7.50;;;;;23.35;47.78;100051.75;5056318;28;45500;-64
2022/06/19 07:09:49;;;;;;;;;7.00;6.00;;;;;23.35;47.71;100069.69;5056404;28;45451;-61
2022/06/19 07:12:14;;;;;;;;;6.00;5.25;;;;;23.32;47.50;100061.91;5056411;28;45611;-61
2022/06/19 07:14:39;;;;;;;;;8.00;6.75;;;;;23.24;47.49;100035.84;5056240;28;45423;-63
2022/06/19 07:17:05;;;;;;;;;6.00;6.00;;;;;23.13;48.01;100077.13;5056046;28;45501;-66
2022/06/19 07:19:31;;;;;;;;;7.75;5.00;;;;;23.05;48.06;100170.03;5055461;28;45529;-66
2022/06/19 07:21:56;;;;;;;;;5.75;5.75;;;;;22.91;48.36;100193.59;5056608;28;45577;-61
2022/06/19 07:24:21;;;;;;;;;9.50;7.50;;;;;22.85;48.40;100204.06;5055360;28;46539;-62
2022/06/19 07:26:47;;;;;;;;;4.50;4.50;;;;;22.78;48.50;100217.19;5056043;28;45478;-62
2022/06/19 07:29:12;;;;;;;;;7.25;4.25;;;;;22.81;48.57;100195.47;5056045;28;45665;-64
2022/06/19 07:31:38;;;;;;;;;7.00;6.25;;;;;22.93;48.45;100241.75;5055769;28;45524;-64
2022/06/19 07:34:04;;;;;;;;;6.25;6.00;;;;;22.99;47.93;100315.47;5055822;28;45497;-64
2022/06/19 07:36:30;;;;;;;;;5.25;4.25;;;;;23.01;47.62;100357.25;5056294;28;45539;-62
2022/06/19 07:38:56;;;;;;;;;5.00;5.00;;;;;22.89;47.85;100323.47;5055886;28;45452;-63
2022/06/19 07:41:21;;;;;;;;;4.75;4.00;;;;;22.94;47.62;100299.75;5055713;28;45672;-65
2022/06/19 07:43:49;;;;;;;;;6.75;5.00;;;;;22.98;47.77;100335.25;5054370;28;47636;-62
2022/06/19 07:46:14;;;;;;;;;6.50;5.75;;;;;22.97;47.55;100298.66;5055542;28;45482;-65
2022/06/19 07:51:25;;;;;;;;;5.00;4.25;;;;;22.92;46.99;100299.06;5055786;28;45475;-62
2022/06/19 07:53:50;;;;;;;;;8.50;5.00;;;;;22.92;47.25;100261.53;5055812;28;46690;-62
2022/06/19 07:56:15;;;;;;;;;6.50;6.00;;;;;23.01;47.27;100286.66;5055603;28;45453;-64
2022/06/19 07:58:41;;;;;;;;;5.00;5.00;;;;;22.97;46.84;100326.34;5055662;28;45927;-63
2022/06/19 08:01:06;;;;;;;;;5.50;5.50;;;;;22.97;46.98;100398.78;5055604;28;45476;-65
2022/06/19 08:03:32;;;;;;;;;7.75;6.25;;;;;22.99;47.14;100404.81;5055486;28;45394;-61
2022/06/19 08:05:57;;;;;;;;;6.25;6.25;;;;;22.93;47.18;100357.06;5054141;28;45748;-62
2022/06/19 08:08:27;;;;;;;;;7.00;7.00;;;;;22.97;47.22;100345.13;5055415;28;45539;-63
2022/06/19 08:10:55;;;;;;;;;6.75;6.75;;;;;22.98;47.41;100349.50;5066611;27;45494;-65
2022/06/19 08:13:23;;;;;;;;;8.50;8.50;;;;;23.03;46.96;100312.38;5075452;27;46083;-62
2022/06/19 08:15:54;;;;;;;;;11.00;7.75;;;;;23.10;47.06;100267.03;5075358;27;45456;-62
2022/06/19 08:18:20;;;;;;;;;8.00;8.00;;;;;23.19;46.98;100263.50;5075395;27;45543;-62
2022/06/19 08:20:46;;;;;;;;;9.25;7.75;;;;;23.27;47.23;100278.88;5075312;27;45442;-60
2022/06/19 08:23:13;;;;;;;;;6.25;5.50;;;;;23.33;47.03;100283.66;5074799;27;45484;-64
2022/06/19 08:25:39;;;;;;;;;7.75;7.00;;;;;23.39;46.69;100253.56;5074507;27;45549;-61
2022/06/19 08:28:05;;;;;;;;;6.00;5.00;;;;;23.37;46.76;100228.69;5075209;27;45548;-63
2022/06/19 08:30:33;;;;;;;;;5.50;5.00;;;;;23.37;46.68;100212.59;5075270;28;45558;-65
2022/06/19 08:32:59;;;;;;;;;10.75;9.25;;;;;23.37;46.85;100207.22;5074860;27;46471;-63
2022/06/19 08:35:27;;;;;;;;;8.00;8.00;;;;;23.36;46.81;100198.34;5073723;27;45467;-61
2022/06/19 08:38:00;;;;;;;;;6.50;6.50;;;;;23.34;46.72;100178.00;5073859;27;45438;-66
2022/06/19 08:40:56;;;;;;;;;10.50;8.75;;;;;23.40;46.64;100165.81;5073371;27;45685;-62
2022/06/19 08:43:55;;;;;;;;;8.00;8.00;;;;;23.39;46.92;100151.56;5053902;27;45545;-65
2022/06/19 08:46:32;;;;;;;;;8.75;8.25;;;;;23.43;46.64;100144.94;5074936;27;45471;-61
2022/06/19 08:49:35;;;;;;;;;9.25;9.25;;;;;23.42;46.74;100128.97;5075240;28;45540;-60
2022/06/19 08:52:04;;;;;;;;;10.25;9.75;;;;;23.42;46.99;100142.38;5074810;27;45644;-63
2022/06/19 08:54:50;;;;;;;;;8.25;6.75;;;;;23.43;46.80;100158.34;5074995;27;46436;-62
2022/06/19 08:57:32;;;;;;;;;10.00;10.00;;;;;23.47;47.12;100148.16;5075093;27;45468;-61
2022/06/19 09:00:11;;;;;;;;;11.25;9.00;;;;;23.46;46.74;100141.09;5068699;27;45525;-67
2022/06/19 09:03:07;;;;;;;;;9.00;7.50;;;;;23.49;46.66;100146.16;5067429;27;45467;-67
2022/06/19 09:05:45;;;;;;;;;9.00;7.00;;;;;23.47;46.86;100167.78;5068050;27;45586;-66
2022/06/19 09:08:49;;;;;;;;;7.25;7.25;;;;;23.53;47.01;100183.28;5062916;27;45570;-65
2022/06/19 09:11:31;;;;;;;;;9.00;7.75;;;;;23.64;46.42;100210.94;5043928;27;45542;-68
2022/06/19 09:14:03;;;;;;;;;9.00;8.50;;;;;23.69;46.74;100233.66;5064543;27;45627;-65
2022/06/19 09:16:41;;;;;;;;;8.75;8.75;;;;;23.61;46.51;100246.97;5074722;27;45969;-68
2022/06/19 09:19:33;;;;;;;;;11.75;10.50;;;;;23.65;46.62;100267.19;5054364;28;45513;-66
2022/06/19 09:22:36;;;;;;;;;12.00;11.25;;;;;23.69;46.41;100282.00;5054326;28;45396;-67
2022/06/19 09:25:35;;;;;;;;;10.75;10.75;;;;;23.74;46.53;100281.59;5053732;28;45606;-67
2022/06/19 09:28:14;;;;;;;;;9.00;9.00;;;;;23.81;46.23;100274.66;5053993;28;46237;-66
2022/06/19 09:30:50;;;;;;;;;11.50;11.00;;;;;23.72;46.36;100278.19;5053703;28;45503;-64
2022/06/19 09:33:26;;;;;;;;;11.50;11.50;;;;;23.72;46.31;100292.50;5054009;28;45493;-66
2022/06/19 09:36:08;;;;;;;;;14.00;13.00;;;;;23.77;46.22;100290.19;5054008;28;45549;-67
2022/06/19 09:38:45;;;;;;;;;13.33;13.33;;;;;23.81;46.05;100288.91;5053534;28;45603;-67
2022/06/19 09:41:44;;;;;;;;;9.75;9.75;;;;;23.88;46.07;100293.69;5053769;28;45500;-65
2022/06/19 09:44:51;;;;;;;;;15.25;15.25;;;;;23.98;46.31;100289.13;5053390;28;45455;-67
2022/06/19 09:47:28;;;;;;;;;15.75;13.75;;;;;24.01;46.29;100275.41;4988581;28;45592;-64
2022/06/19 09:50:05;;;;;;;;;13.50;13.50;;;;;24.03;46.19;100276.09;5056025;28;45867;-65
2022/06/19 09:52:37;;;;;;;;;14.50;13.75;;;;;24.00;46.31;100276.41;5072270;27;45546;-67
2022/06/19 09:55:30;;;;;;;;;16.50;14.75;;;;;23.84;46.80;100265.47;5077704;27;45547;-66
2022/06/19 09:58:11;;;;;;;;;20.00;17.00;;;;;23.76;46.56;100279.63;5075646;28;45659;-64
2022/06/19 10:00:38;;;;;;;;;16.67;14.33;;;;;23.80;47.17;100283.69;5064694;27;45463;-68
2022/06/19 10:03:25;;;;;;;;;13.50;13.50;;;;;23.75;47.10;100277.91;5077179;27;45518;-68
2022/06/19 10:05:55;;;;;;;;;14.00;14.00;;;;;23.75;46.86;100272.53;5068869;27;45429;-67
2022/06/19 10:08:27;;;;;;;;;12.67;12.67;;;;;23.74;47.14;100260.09;5062534;27;45583;-65
2022/06/19 10:11:13;;;;;;;;;18.00;17.00;;;;;23.63;47.57;100265.63;5057303;28;45553;-62
2022/06/19 10:13:48;;;;;;;;;164.67;157.33;;;;;23.62;47.14;100267.47;5060062;28;45619;-66
2022/06/19 10:16:44;;;;;;;;;94.25;93.75;;;;;23.56;47.50;100255.50;5068224;27;45449;-67
2022/06/19 10:19:14;;;;;;;;;17.33;16.33;;;;;23.49;47.64;100254.38;5056826;28;45480;-66
2022/06/19 10:24:57;;;;;;;;;14.00;14.00;;;;;23.48;47.86;100233.91;5073296;27;45456;-66
2022/06/19 10:27:41;;;;;;;;;15.33;14.33;;;;;23.34;48.17;100218.25;5063081;28;45406;-65
2022/06/19 10:30:09;;;;;;;;;19.00;19.00;;;;;23.34;48.26;100219.09;5086219;27;45404;-65
2022/06/19 10:33:05;;;;;;;;;15.00;15.00;;;;;23.36;48.12;100221.66;5086796;27;46258;-67
2022/06/19 10:35:40;;;;;;;;;15.67;15.67;;;;;23.42;48.28;100223.72;5082817;27;45601;-67
2022/06/19 10:38:23;;;;;;;;;15.67;14.67;;;;;23.28;48.55;100208.94;5097138;27;45540;-64
2022/06/19 10:41:09;;;;;;;;;15.33;15.33;;;;;23.36;48.55;100222.47;5090896;27;45627;-66
2022/06/19 10:43:55;;;;;;;;;15.67;15.67;;;;;23.37;48.37;100223.31;5078945;27;45552;-65
2022/06/19 10:46:24;;;;;;;;;17.00;16.00;;;;;23.34;48.66;100220.94;5063679;27;45691;-66
2022/06/19 10:49:24;;;;;;;;;15.33;15.33;;;;;23.19;49.21;100227.78;5057580;27;45533;-63
2022/06/19 10:52:17;;;;;;;;;19.33;19.00;;;;;23.08;49.10;100232.31;5087875;27;45490;-65
2022/06/19 10:55:12;;;;;;;;;15.67;15.67;;;;;23.10;49.59;100224.94;5076389;27;45492;-67
2022/06/19 10:57:59;;;;;;;;;17.00;16.00;;;;;23.21;49.75;100221.25;5076577;27;45500;-65
2022/06/19 11:00:25;;;;;;;;;20.00;16.67;;;;;23.31;49.27;100215.88;5072799;27;45436;-66
2022/06/19 11:05:52;;;;;;;;;17.00;17.00;;;;;23.41;49.02;100223.91;5075809;28;45787;-70
2022/06/19 11:08:21;;;;;;;;;22.00;21.00;;;;;23.36;49.19;100221.66;5075762;27;45580;-69
2022/06/19 11:10:54;;;;;;;;;21.67;20.33;;;;;23.19;49.22;100228.63;5073198;27;45636;-68
2022/06/19 11:13:19;;;;;;;;;16.00;16.00;;;;;23.33;49.58;100212.03;5074912;27;45538;-71
2022/06/19 11:15:59;;;;;;;;;19.00;16.00;;;;;23.29;49.37;100221.41;5075730;27;46908;-65
2022/06/19 11:18:25;;;;;;;;;17.33;17.33;;;;;23.32;49.71;100239.88;5060929;28;45568;-64
2022/06/19 11:20:54;;;;;;;;;21.67;20.33;;;;;23.30;49.47;100246.38;5055762;28;45462;-68
2022/06/19 11:23:29;;;;;;;;;19.00;19.00;;;;;23.31;49.42;100229.28;5067381;28;45571;-66
2022/06/19 11:26:16;;;;;;;;;24.00;23.00;;;;;23.27;49.50;100222.53;5066168;27;45589;-66
2022/06/19 11:28:50;;;;;;;;;22.67;21.33;;;;;23.22;49.70;100216.75;5066909;27;45597;-65
2022/06/19 11:31:24;;;;;;;;;20.33;18.67;;;;;23.15;50.44;100222.69;5075766;27;45456;-64
2022/06/19 11:33:54;;;;;;;;;20.67;19.00;;;;;23.18;50.32;100209.97;5071761;27;45564;-62
2022/06/19 11:36:36;;;;;;;;;21.00;18.33;;;;;23.33;49.88;100225.47;5055337;28;45458;-62
2022/06/19 11:39:30;;;;;;;;;18.00;18.00;;;;;23.48;49.43;100233.91;5061766;27;45513;-66
2022/06/19 11:41:55;;;;;;;;;21.00;18.33;;;;;23.45;49.55;100214.53;5071684;27;45529;-66
2022/06/19 11:44:21;;;;;;;;;19.00;17.33;;;;;23.25;49.55;100198.50;5061026;27;45592;-66